»·PEaware :: N493W KONT-KSMX

N493W :: KONT-KSMX

FLIGHT INFORMATION

Flight Status: Arrived
Operator: Privately registered:
United States
More flights under this callsign
Pilot: Patrick L. (29141)
Aircraft: MOONEY M-20K/M ENCORE BRAVO
(M20T)
More flights by this aircraft type
Origin: KONT Ontario Intl
United States
Destination: KSMX Santa Maria Pub/Capt Hancock
United States
More flights between these airports :: More routes between these airports
Route: DIRECT
File this flight plan on PilotEdge
Remarks:
Altitude:
(Current/Filed)
8,500ft
Speed:
(Current/Filed)
165kts
Departed: 08-Jul-20 10:55 AM
Arrived: 08-Jul-20 11:47 AM
Distance/Time
Traveled:
150nm/0:52
Distance/Time
To Go:
Arrived

Flight Plot

Page will automatically refresh every two minutes.

Flight plan parsing failed; only flown route is shown


Map Options




Map Legend


Flown Route
Filed Route
Departure Airport
Arrival Airport
Navaid (VOR, NDB)
Fix

Horizontal Profiles

Position Reports

Time Latitude Longitude Heading Altitude Ground
Speed
08-Jul-20 10:38 34.052992 -117.604179 269 913ft 0kts
08-Jul-20 10:39 34.052992 -117.604179 269 913ft 0kts
08-Jul-20 10:40 34.052992 -117.604179 269 913ft 0kts
08-Jul-20 10:41 34.052992 -117.604179 269 913ft 0kts
08-Jul-20 10:42 34.052992 -117.604179 269 913ft 0kts
08-Jul-20 10:43 34.052992 -117.604179 269 913ft 0kts
08-Jul-20 10:44 34.052992 -117.604179 269 913ft 0kts
08-Jul-20 10:45 34.052991 -117.604241 266 913ft 0kts
08-Jul-20 10:46 34.052993 -117.604270 279 913ft 1kts
08-Jul-20 10:47 34.053852 -117.602890 92 915ft 12kts
08-Jul-20 10:48 34.053851 -117.598071 88 913ft 11kts
08-Jul-20 10:49 34.053845 -117.594601 88 913ft 11kts
08-Jul-20 10:50 34.053839 -117.589801 90 913ft 14kts
08-Jul-20 10:51 34.053844 -117.585473 90 913ft 12kts
08-Jul-20 10:52 34.054137 -117.582524 18 916ft 0kts
08-Jul-20 10:53 34.054975 -117.582917 271 921ft 16kts
08-Jul-20 10:54 34.060190 -117.612591 292 1530ft 127kts
08-Jul-20 10:55 34.073120 -117.657628 284 2537ft 153kts
08-Jul-20 10:56 34.086301 -117.708733 290 3546ft 163kts
08-Jul-20 10:57 34.101913 -117.760442 291 4547ft 165kts
08-Jul-20 10:58 34.117967 -117.812494 291 5549ft 166kts
08-Jul-20 10:59 34.134096 -117.864716 291 6553ft 166kts
08-Jul-20 11:00 34.150155 -117.916787 291 7554ft 165kts
08-Jul-20 11:01 34.166226 -117.968978 290 8489ft 169kts
08-Jul-20 11:02 34.183523 -118.025145 290 8518ft 183kts
08-Jul-20 11:03 34.201432 -118.083481 290 8517ft 185kts
08-Jul-20 11:04 34.219377 -118.142079 290 8513ft 186kts
08-Jul-20 11:05 34.237312 -118.200765 290 8508ft 186kts
08-Jul-20 11:06 34.255216 -118.259476 290 8506ft 186kts
08-Jul-20 11:07 34.273106 -118.318246 290 8506ft 186kts
08-Jul-20 11:08 34.290899 -118.376821 290 8507ft 185kts
08-Jul-20 11:09 34.308702 -118.435541 290 8507ft 186kts
08-Jul-20 11:10 34.326477 -118.494289 290 8504ft 186kts
08-Jul-20 11:11 34.344280 -118.553247 290 8500ft 186kts
08-Jul-20 11:12 34.362041 -118.612176 290 8496ft 186kts
08-Jul-20 11:13 34.379539 -118.670359 289 8496ft 186kts
08-Jul-20 11:14 34.397210 -118.729235 288 8493ft 186kts
08-Jul-20 11:15 34.414856 -118.788147 288 8491ft 186kts
08-Jul-20 11:16 34.432574 -118.847436 288 8490ft 186kts
08-Jul-20 11:17 34.450163 -118.906399 288 8490ft 186kts
08-Jul-20 11:18 34.467767 -118.965526 289 8490ft 185kts
08-Jul-20 11:19 34.485295 -119.024518 289 8468ft 187kts
08-Jul-20 11:20 34.502922 -119.083956 289 8454ft 186kts
08-Jul-20 11:21 34.520274 -119.142601 289 8456ft 186kts
08-Jul-20 11:22 34.537677 -119.201535 289 8459ft 185kts
08-Jul-20 11:23 34.555070 -119.260554 289 8461ft 185kts
08-Jul-20 11:24 34.572379 -119.319404 289 8462ft 185kts
08-Jul-20 11:25 34.589728 -119.378519 289 8462ft 185kts
08-Jul-20 11:26 34.607079 -119.437768 289 8462ft 186kts
08-Jul-20 11:27 34.624424 -119.497118 289 8462ft 186kts
08-Jul-20 11:28 34.641798 -119.556695 289 8462ft 187kts
08-Jul-20 11:29 34.659171 -119.616389 289 8461ft 187kts
08-Jul-20 11:30 34.676531 -119.676158 288 8463ft 187kts
08-Jul-20 11:31 34.693866 -119.735965 288 8463ft 187kts
08-Jul-20 11:32 34.711192 -119.795869 288 8435ft 187kts
08-Jul-20 11:33 34.728434 -119.855558 288 7892ft 187kts
08-Jul-20 11:34 34.745514 -119.915157 288 7288ft 187kts
08-Jul-20 11:35 34.762609 -119.974951 289 6614ft 186kts
08-Jul-20 11:36 34.778742 -120.031265 289 6472ft 168kts
08-Jul-20 11:37 34.794733 -120.087099 289 5884ft 177kts
08-Jul-20 11:38 34.811076 -120.144288 290 5109ft 179kts
08-Jul-20 11:39 34.827226 -120.200947 290 4300ft 175kts
08-Jul-20 11:40 34.842779 -120.256588 286 3442ft 171kts
08-Jul-20 11:41 34.852018 -120.305021 283 2188ft 134kts
08-Jul-20 11:42 34.858488 -120.343246 278 1598ft 102kts
08-Jul-20 11:43 34.865386 -120.375802 284 1264ft 105kts
08-Jul-20 11:44 34.872862 -120.408590 287 830ft 91kts
08-Jul-20 11:45 34.884157 -120.435582 317 520ft 84kts
08-Jul-20 11:46 34.897132 -120.451031 319 263ft 28kts
08-Jul-20 11:47 34.898845 -120.451464 89 263ft 0kts
08-Jul-20 11:48 34.899145 -120.451002 326 263ft 10kts
08-Jul-20 11:49 34.901053 -120.451082 29 263ft 0kts
08-Jul-20 11:50 34.901103 -120.450959 96 263ft 0kts

Navigation Log

Ident Type
Flight plan parsing failed, navigation log unavailable